createdAt,value
2018-11-29T00:02:47.915Z,55.60
2018-11-29T00:06:02.175Z,55.60
2018-11-29T00:08:59.032Z,55.60
2018-11-29T00:11:55.290Z,55.60
2018-11-29T00:14:51.596Z,55.70
2018-11-29T00:17:50.950Z,55.70
2018-11-29T00:20:47.314Z,55.70
2018-11-29T00:23:43.072Z,55.70
2018-11-29T00:26:39.631Z,55.90
2018-11-29T00:29:35.929Z,55.90
2018-11-29T00:32:32.512Z,55.90
2018-11-29T00:35:30.164Z,55.90
2018-11-29T00:38:26.662Z,56.00
2018-11-29T00:41:23.198Z,56.10
2018-11-29T00:44:19.426Z,56.20
2018-11-29T00:47:15.486Z,56.30
2018-11-29T00:50:12.616Z,56.50
2018-11-29T00:53:09.487Z,56.40
2018-11-29T00:56:06.001Z,56.50
2018-11-29T00:59:04.950Z,56.60
2018-11-29T01:02:07.452Z,56.60
2018-11-29T01:05:03.353Z,56.70
2018-11-29T01:07:59.974Z,56.70
2018-11-29T01:10:56.104Z,56.90
2018-11-29T01:13:52.948Z,56.90
2018-11-29T01:16:49.528Z,57.00
2018-11-29T01:19:46.122Z,57.20
2018-11-29T01:22:42.517Z,57.10
2018-11-29T01:25:38.622Z,57.20
2018-11-29T01:28:34.800Z,57.30
2018-11-29T01:31:31.379Z,57.20
2018-11-29T01:34:27.564Z,57.30
2018-11-29T01:37:24.022Z,57.30
2018-11-29T01:40:21.865Z,57.30
2018-11-29T01:43:21.578Z,57.40
2018-11-29T01:46:18.300Z,57.40
2018-11-29T01:49:14.440Z,57.40
2018-11-29T01:52:10.464Z,57.40
2018-11-29T01:55:06.764Z,57.30
2018-11-29T01:58:02.913Z,57.20
2018-11-29T02:00:59.460Z,57.20
2018-11-29T02:03:59.504Z,57.20
2018-11-29T02:06:56.844Z,57.10
2018-11-29T02:10:14.290Z,56.90
2018-11-29T02:13:10.627Z,56.70
2018-11-29T02:16:07.200Z,56.70
2018-11-29T02:19:03.375Z,56.90
2018-11-29T02:22:03.400Z,57.00
2018-11-29T02:24:57.112Z,57.00
2018-11-29T02:27:56.698Z,57.00
2018-11-29T02:30:53.045Z,57.10
2018-11-29T02:33:51.762Z,57.10
2018-11-29T02:36:48.352Z,57.10
2018-11-29T02:39:44.392Z,57.10
2018-11-29T02:42:41.006Z,57.10
2018-11-29T02:45:37.334Z,57.00
2018-11-29T02:48:34.119Z,57.00
2018-11-29T02:51:30.770Z,57.00
2018-11-29T02:54:27.131Z,56.90
2018-11-29T02:57:23.611Z,56.60
2018-11-29T03:00:27.105Z,56.30
2018-11-29T03:03:23.015Z,56.50
2018-11-29T03:06:19.480Z,56.50
2018-11-29T03:09:16.118Z,56.50
2018-11-29T03:12:13.379Z,56.30
2018-11-29T03:15:11.978Z,56.30
2018-11-29T03:18:08.641Z,56.40
2018-11-29T03:21:05.299Z,56.20
2018-11-29T03:24:01.866Z,55.90
2018-11-29T03:26:57.962Z,55.70
2018-11-29T03:29:54.414Z,55.60
2018-11-29T03:32:50.804Z,55.80
2018-11-29T03:35:48.159Z,55.90
2018-11-29T03:38:44.586Z,55.90
2018-11-29T03:41:41.302Z,55.80
2018-11-29T03:44:37.691Z,55.90
2018-11-29T03:47:34.170Z,56.10
2018-11-29T03:50:30.011Z,56.10
2018-11-29T03:53:26.838Z,55.80
2018-11-29T03:56:23.015Z,55.20
2018-11-29T03:59:19.402Z,55.50
2018-11-29T04:02:15.886Z,55.60
2018-11-29T04:05:12.782Z,55.60
2018-11-29T04:08:09.094Z,55.70
2018-11-29T04:11:05.047Z,55.80
2018-11-29T04:14:01.996Z,55.70
2018-11-29T04:16:58.829Z,55.50
2018-11-29T04:19:54.882Z,55.60
2018-11-29T04:22:51.510Z,55.40
2018-11-29T04:25:47.798Z,55.30
2018-11-29T04:28:44.194Z,55.30
2018-11-29T04:31:41.109Z,55.80
2018-11-29T04:34:37.620Z,55.20
2018-11-29T04:37:34.516Z,55.10
2018-11-29T04:40:30.791Z,55.10
2018-11-29T04:43:28.082Z,55.10
2018-11-29T04:46:47.555Z,55.20
2018-11-29T04:49:44.231Z,55.20
2018-11-29T04:52:41.099Z,55.10
2018-11-29T04:55:37.839Z,55.10
2018-11-29T04:58:34.367Z,55.00
2018-11-29T05:01:30.995Z,54.90
2018-11-29T05:04:30.165Z,54.60
2018-11-29T05:07:27.730Z,54.60
2018-11-29T05:10:25.048Z,54.50
2018-11-29T05:13:22.696Z,54.30
2018-11-29T05:16:23.609Z,54.20
2018-11-29T05:19:18.100Z,54.10
2018-11-29T05:22:19.536Z,54.00
2018-11-29T05:25:16.909Z,53.90
2018-11-29T05:28:18.331Z,53.60
2018-11-29T05:31:15.056Z,53.40
2018-11-29T05:34:13.257Z,53.40
2018-11-29T05:37:10.166Z,53.10
2018-11-29T05:40:11.618Z,53.10
2018-11-29T05:43:08.493Z,52.90
2018-11-29T05:46:06.454Z,53.00
2018-11-29T05:49:02.433Z,53.10
2018-11-29T05:51:58.848Z,52.90
2018-11-29T05:54:58.605Z,52.70
2018-11-29T05:57:57.213Z,52.60
2018-11-29T06:00:54.052Z,52.50
2018-11-29T06:04:00.547Z,52.30
2018-11-29T06:07:04.729Z,52.20
2018-11-29T06:10:08.142Z,52.40
2018-11-29T06:13:05.695Z,52.30
2018-11-29T06:16:03.066Z,52.00
2018-11-29T06:19:05.664Z,51.90
2018-11-29T06:22:03.682Z,51.80
2018-11-29T06:25:02.792Z,51.40
2018-11-29T06:28:01.546Z,51.60
2018-11-29T06:31:04.004Z,51.30
2018-11-29T06:34:00.128Z,51.20
2018-11-29T06:37:22.263Z,51.00
2018-11-29T06:40:17.854Z,51.00
2018-11-29T06:43:16.535Z,50.80
2018-11-29T06:46:17.786Z,50.70
2018-11-29T06:49:15.366Z,50.60
2018-11-29T06:52:11.238Z,50.50
2018-11-29T06:55:08.018Z,50.20
2018-11-29T06:58:03.841Z,50.20
2018-11-29T07:00:59.861Z,50.20
2018-11-29T07:03:59.709Z,50.00
2018-11-29T07:06:53.555Z,49.90
2018-11-29T07:09:54.264Z,49.90
2018-11-29T07:12:50.761Z,49.60
2018-11-29T07:15:48.080Z,49.40
2018-11-29T07:18:44.766Z,49.30
2018-11-29T07:22:04.943Z,49.30
2018-11-29T07:25:00.666Z,49.00
2018-11-29T07:28:02.258Z,48.80
2018-11-29T07:31:03.576Z,48.30
2018-11-29T07:34:03.753Z,47.70
2018-11-29T07:37:17.363Z,47.90
2018-11-29T07:40:29.649Z,48.30
2018-11-29T07:43:26.341Z,48.20
2018-11-29T07:46:36.647Z,47.90
2018-11-29T07:49:32.235Z,47.90
2018-11-29T07:52:30.363Z,47.90
2018-11-29T07:55:39.564Z,47.80
2018-11-29T07:58:32.459Z,47.50
2018-11-29T08:01:31.656Z,47.60
2018-11-29T08:04:31.552Z,47.30
2018-11-29T08:07:29.188Z,47.00
2018-11-29T08:10:33.350Z,46.80
2018-11-29T08:13:40.235Z,46.60
2018-11-29T08:16:38.696Z,46.40
2018-11-29T08:19:45.821Z,46.20
2018-11-29T08:22:36.661Z,46.30
2018-11-29T08:25:36.710Z,46.40
2018-11-29T08:28:33.825Z,46.80
2018-11-29T08:31:30.107Z,46.80
2018-11-29T08:34:26.447Z,46.50
2018-11-29T08:37:23.247Z,46.40
2018-11-29T08:40:21.642Z,46.40
2018-11-29T08:43:18.072Z,46.20
2018-11-29T08:46:14.120Z,46.20
2018-11-29T08:49:10.564Z,46.00
2018-11-29T08:52:06.711Z,45.90
2018-11-29T08:55:04.164Z,45.90
2018-11-29T08:58:06.063Z,45.90
2018-11-29T09:01:03.408Z,46.10
2018-11-29T09:04:01.175Z,46.10
2018-11-29T09:07:04.005Z,45.90
2018-11-29T09:10:01.450Z,45.80
2018-11-29T09:12:59.455Z,45.90
2018-11-29T09:16:04.926Z,46.00
2018-11-29T09:19:10.050Z,45.60
2018-11-29T09:22:28.453Z,45.30
2018-11-29T09:25:40.806Z,45.30
2018-11-29T09:28:50.663Z,45.70
2018-11-29T09:31:49.313Z,45.80
2018-11-29T09:34:47.579Z,45.50
2018-11-29T09:37:47.247Z,45.40
2018-11-29T09:40:44.860Z,45.40
2018-11-29T09:43:45.722Z,45.50
2018-11-29T09:46:50.568Z,45.70
2018-11-29T09:49:46.025Z,45.80
2018-11-29T09:52:44.197Z,45.40
2018-11-29T09:55:42.438Z,45.30
2018-11-29T09:58:40.409Z,45.30
2018-11-29T10:01:38.768Z,45.40
2018-11-29T10:04:37.010Z,45.50
2018-11-29T10:07:35.329Z,45.50
2018-11-29T10:10:33.618Z,45.50
2018-11-29T10:13:34.731Z,45.30
2018-11-29T10:16:34.116Z,45.40
2018-11-29T10:19:31.449Z,45.40
2018-11-29T10:22:28.983Z,45.40
2018-11-29T10:25:29.616Z,45.60
2018-11-29T10:28:28.185Z,45.70
2018-11-29T10:31:27.174Z,45.50
2018-11-29T10:34:24.342Z,45.30
2018-11-29T10:37:22.212Z,45.40
2018-11-29T10:40:23.020Z,45.30
2018-11-29T10:43:24.476Z,45.40
2018-11-29T10:46:28.045Z,45.50
2018-11-29T10:49:25.500Z,45.60
2018-11-29T10:52:25.539Z,45.50
2018-11-29T10:55:26.837Z,45.60
2018-11-29T10:58:25.237Z,45.60
2018-11-29T11:01:36.362Z,45.70
2018-11-29T11:04:35.266Z,46.20
2018-11-29T11:07:33.237Z,46.10
2018-11-29T11:10:33.282Z,46.10
2018-11-29T11:13:34.776Z,46.10
2018-11-29T11:16:29.706Z,46.30
2018-11-29T11:19:29.002Z,46.40
2018-11-29T11:22:28.968Z,46.30
2018-11-29T11:25:28.806Z,46.50
2018-11-29T11:28:28.969Z,46.50
2018-11-29T11:31:31.211Z,46.60
2018-11-29T11:34:34.642Z,46.90
2018-11-29T11:37:35.907Z,47.00
2018-11-29T11:40:33.879Z,47.10
2018-11-29T11:43:33.974Z,47.20
2018-11-29T11:46:31.457Z,47.10
2018-11-29T11:49:28.929Z,47.10
2018-11-29T11:52:25.710Z,47.20
2018-11-29T11:55:29.476Z,47.40
2018-11-29T11:58:19.945Z,47.60
2018-11-29T12:01:16.831Z,47.70
2018-11-29T12:04:14.295Z,47.80
2018-11-29T12:07:16.469Z,47.80
2018-11-29T12:10:16.997Z,47.80
2018-11-29T12:13:17.252Z,47.80
2018-11-29T12:16:15.494Z,47.70
2018-11-29T12:19:13.095Z,47.80
2018-11-29T12:22:12.862Z,47.90
2018-11-29T12:25:13.012Z,47.90
2018-11-29T12:28:10.989Z,47.90
2018-11-29T12:31:08.626Z,47.90
2018-11-29T12:34:05.656Z,48.00
2018-11-29T12:37:03.280Z,48.00
2018-11-29T12:40:01.095Z,48.10
2018-11-29T12:42:59.520Z,48.10
2018-11-29T12:45:57.452Z,48.30
2018-11-29T12:48:54.884Z,48.30
2018-11-29T12:51:52.656Z,48.30
2018-11-29T12:54:49.986Z,48.30
2018-11-29T12:58:04.661Z,48.50
2018-11-29T13:00:47.578Z,48.50
2018-11-29T13:03:45.756Z,48.70
2018-11-29T13:06:44.050Z,48.70
2018-11-29T13:09:44.298Z,48.90
2018-11-29T13:12:42.072Z,48.90
2018-11-29T13:15:40.495Z,48.80
2018-11-29T13:18:38.562Z,48.90
2018-11-29T13:21:35.196Z,48.90
2018-11-29T13:24:31.989Z,48.80
2018-11-29T13:27:28.862Z,48.80
2018-11-29T13:30:27.679Z,48.90
2018-11-29T13:33:25.561Z,48.80
2018-11-29T13:36:27.924Z,48.90
2018-11-29T13:39:24.538Z,48.80
2018-11-29T13:42:22.140Z,48.70
2018-11-29T13:45:19.780Z,48.70
2018-11-29T13:48:18.063Z,48.80
2018-11-29T13:51:15.094Z,48.90
2018-11-29T13:54:14.464Z,48.80
2018-11-29T13:57:11.737Z,48.80
2018-11-29T14:00:09.785Z,49.00
2018-11-29T14:03:09.534Z,49.00
2018-11-29T14:06:07.974Z,49.10
2018-11-29T14:09:09.343Z,49.20
2018-11-29T14:12:06.586Z,49.30
2018-11-29T14:15:04.562Z,49.30
2018-11-29T14:18:02.058Z,49.40
2018-11-29T14:20:59.414Z,49.50
2018-11-29T14:23:57.102Z,49.60
2018-11-29T14:26:54.186Z,49.70
2018-11-29T14:29:52.327Z,49.70
2018-11-29T14:32:48.942Z,49.80
2018-11-29T14:35:49.224Z,49.80
2018-11-29T14:38:46.247Z,49.90
2018-11-29T14:41:43.738Z,50.00
2018-11-29T14:44:40.999Z,50.00
2018-11-29T14:47:38.462Z,50.10
2018-11-29T14:50:46.451Z,50.10
2018-11-29T14:53:45.087Z,50.10
2018-11-29T14:56:42.994Z,50.10
2018-11-29T14:59:40.427Z,50.10
2018-11-29T15:02:37.556Z,50.00
2018-11-29T15:05:37.105Z,50.10
2018-11-29T15:08:34.336Z,50.20
2018-11-29T15:11:32.167Z,50.20
2018-11-29T15:14:33.462Z,50.20
2018-11-29T15:17:28.193Z,50.10
2018-11-29T15:20:36.418Z,50.20
2018-11-29T15:23:34.765Z,50.20
2018-11-29T15:26:31.902Z,50.10
2018-11-29T15:29:29.088Z,50.10
2018-11-29T15:32:26.131Z,50.10
2018-11-29T15:35:24.650Z,50.10
2018-11-29T15:38:22.503Z,50.10
2018-11-29T15:41:19.885Z,50.30
2018-11-29T15:44:16.696Z,50.30
2018-11-29T15:47:14.680Z,50.30
2018-11-29T15:50:21.300Z,50.40
2018-11-29T15:53:18.165Z,50.50
2018-11-29T15:56:16.275Z,50.50
2018-11-29T15:59:14.255Z,50.60
2018-11-29T16:02:15.398Z,50.70
2018-11-29T16:05:09.732Z,50.70
2018-11-29T16:08:07.049Z,50.80
2018-11-29T16:11:04.609Z,50.90
2018-11-29T16:14:02.440Z,50.90
2018-11-29T16:17:00.054Z,50.80
2018-11-29T16:19:56.805Z,50.70
2018-11-29T16:22:54.715Z,50.60
2018-11-29T16:25:52.372Z,50.70
2018-11-29T16:28:50.218Z,50.70
2018-11-29T16:31:47.256Z,50.70
2018-11-29T16:34:45.019Z,50.70
2018-11-29T16:37:43.405Z,50.70
2018-11-29T16:40:41.354Z,50.70
2018-11-29T16:43:40.239Z,50.80
2018-11-29T16:46:38.718Z,50.70
2018-11-29T16:49:35.730Z,50.70
2018-11-29T16:52:32.827Z,50.70
2018-11-29T16:55:30.813Z,50.80
2018-11-29T16:58:36.944Z,50.90
2018-11-29T17:01:30.468Z,51.00
2018-11-29T17:04:27.745Z,51.20
2018-11-29T17:07:25.623Z,51.30
2018-11-29T17:10:27.037Z,51.50
2018-11-29T17:13:25.121Z,51.40
2018-11-29T17:16:22.610Z,51.50
2018-11-29T17:19:19.570Z,51.40
2018-11-29T17:22:16.911Z,51.50
2018-11-29T17:25:14.594Z,51.50
2018-11-29T17:28:15.810Z,51.60
2018-11-29T17:31:09.460Z,51.50
2018-11-29T17:34:09.079Z,51.50
2018-11-29T17:37:02.496Z,51.50
2018-11-29T17:39:58.531Z,51.70
2018-11-29T17:42:55.332Z,51.80
2018-11-29T17:45:51.625Z,51.90
2018-11-29T17:48:48.329Z,52.00
2018-11-29T17:51:44.257Z,52.10
2018-11-29T17:54:40.125Z,52.10
2018-11-29T17:57:36.469Z,52.20
2018-11-29T18:00:34.672Z,52.40
2018-11-29T18:03:30.861Z,52.40
2018-11-29T18:06:27.818Z,52.40
2018-11-29T18:09:24.673Z,52.40
2018-11-29T18:12:20.946Z,52.40
2018-11-29T18:15:25.673Z,52.40
2018-11-29T18:18:21.878Z,52.40
2018-11-29T18:21:18.330Z,52.40
2018-11-29T18:24:19.146Z,52.40
2018-11-29T18:27:17.017Z,52.40
2018-11-29T18:30:23.017Z,52.50
2018-11-29T18:33:19.674Z,52.50
2018-11-29T18:36:16.098Z,52.50
2018-11-29T18:39:14.641Z,52.50
2018-11-29T18:42:11.288Z,52.50
2018-11-29T18:45:08.600Z,52.60
2018-11-29T18:48:05.296Z,52.80
2018-11-29T18:51:01.756Z,53.00
2018-11-29T18:53:58.373Z,53.10
2018-11-29T18:56:54.814Z,53.30
2018-11-29T18:59:55.050Z,53.50
2018-11-29T19:02:48.302Z,53.70
2018-11-29T19:05:44.736Z,53.90
2018-11-29T19:08:42.568Z,54.20
2018-11-29T19:11:39.143Z,54.30
2018-11-29T19:14:35.261Z,54.50
2018-11-29T19:17:32.653Z,54.60
2018-11-29T19:20:29.373Z,54.80
2018-11-29T19:23:25.739Z,54.90
2018-11-29T19:26:21.949Z,55.00
2018-11-29T19:29:18.303Z,55.10
2018-11-29T19:32:15.379Z,55.00
2018-11-29T19:35:11.998Z,55.00
2018-11-29T19:38:08.059Z,54.90
2018-11-29T19:41:04.098Z,54.90
2018-11-29T19:44:00.490Z,54.90
2018-11-29T19:46:57.496Z,54.80
2018-11-29T19:49:54.596Z,54.70
2018-11-29T19:52:52.674Z,54.60
2018-11-29T19:55:49.782Z,54.60
2018-11-29T19:58:46.462Z,54.60
2018-11-29T20:01:42.914Z,54.60
2018-11-29T20:04:39.060Z,54.60
2018-11-29T20:07:35.929Z,54.60
2018-11-29T20:10:32.426Z,54.70
2018-11-29T20:13:28.923Z,54.80
2018-11-29T20:16:27.919Z,54.90
2018-11-29T20:19:24.458Z,54.90
2018-11-29T20:22:21.450Z,55.00
2018-11-29T20:25:21.697Z,55.00
2018-11-29T20:28:22.010Z,54.80
2018-11-29T20:31:15.390Z,54.80
2018-11-29T20:34:11.394Z,54.80
2018-11-29T20:37:08.220Z,54.70
2018-11-29T20:40:04.482Z,54.80
2018-11-29T20:43:05.085Z,54.90
2018-11-29T20:46:02.355Z,54.90
2018-11-29T20:48:59.352Z,55.00
2018-11-29T20:51:56.139Z,55.00
2018-11-29T20:54:53.121Z,55.00
2018-11-29T20:57:49.436Z,55.10
2018-11-29T21:00:46.429Z,55.10
2018-11-29T21:03:43.143Z,55.20
2018-11-29T21:06:42.704Z,55.30
2018-11-29T21:09:39.496Z,55.30
2018-11-29T21:12:36.343Z,55.40
2018-11-29T21:15:32.582Z,55.50
2018-11-29T21:18:29.009Z,55.40
2018-11-29T21:21:25.424Z,55.30
2018-11-29T21:24:21.496Z,55.30
2018-11-29T21:27:18.139Z,55.30
2018-11-29T21:30:21.537Z,55.80
2018-11-29T21:33:18.920Z,55.20
2018-11-29T21:36:15.279Z,55.20
2018-11-29T21:39:12.120Z,55.20
2018-11-29T21:42:08.622Z,55.20
2018-11-29T21:45:04.557Z,55.30
2018-11-29T21:48:03.009Z,55.30
2018-11-29T21:50:59.046Z,55.30
2018-11-29T21:53:55.842Z,55.30
2018-11-29T21:56:52.042Z,55.40
2018-11-29T21:59:48.037Z,55.60
2018-11-29T22:02:45.171Z,55.60
2018-11-29T22:05:41.729Z,55.70
2018-11-29T22:08:37.833Z,55.70
2018-11-29T22:11:34.202Z,55.70
2018-11-29T22:14:30.487Z,55.80
2018-11-29T22:17:27.130Z,55.90
2018-11-29T22:20:23.198Z,56.00
2018-11-29T22:23:19.745Z,56.00
2018-11-29T22:26:20.104Z,56.00
2018-11-29T22:29:20.540Z,56.00
2018-11-29T22:32:14.252Z,56.10
2018-11-29T22:35:10.752Z,56.00
2018-11-29T22:38:07.115Z,55.90
2018-11-29T22:41:03.351Z,55.80
2018-11-29T22:43:59.584Z,55.70
2018-11-29T22:46:56.196Z,55.50
2018-11-29T22:49:52.615Z,55.40
2018-11-29T22:52:48.596Z,55.30
2018-11-29T22:55:44.908Z,55.30
2018-11-29T22:58:41.282Z,54.70
2018-11-29T23:01:37.393Z,55.10
2018-11-29T23:04:33.739Z,54.90
2018-11-29T23:07:32.788Z,54.90
2018-11-29T23:10:32.610Z,55.40
2018-11-29T23:13:29.351Z,54.80
2018-11-29T23:16:25.578Z,54.90
2018-11-29T23:19:22.203Z,55.00
2018-11-29T23:22:18.674Z,55.10
2018-11-29T23:25:18.974Z,55.10
2018-11-29T23:28:15.533Z,55.10
2018-11-29T23:31:11.810Z,55.20
2018-11-29T23:34:08.645Z,55.20
2018-11-29T23:37:04.831Z,55.30
2018-11-29T23:40:01.055Z,55.40
2018-11-29T23:42:57.388Z,55.50
2018-11-29T23:45:53.889Z,55.60
2018-11-29T23:48:50.535Z,55.50
2018-11-29T23:51:50.440Z,55.70
2018-11-29T23:54:43.805Z,55.80
2018-11-29T23:57:40.427Z,55.90
